Villa del Rosario, Puerto Rico
Current Conditions -  °F | °C
As of 10:53 PM on Saturday 22 Nov 2014 (Local Time) from TJNR Reporting Station
Broken Clouds Broken Clouds  
Wind Chill: 80°   Ceiling: 6000
Heat Index: 84°   Visibility: 10mi
Dew Point: 73°   Wind: 8mph
Humidity: 79%   Direction: 70°ENE
Pressure: 30.05"   Gusts: NA
Location:  18.2147°N, 65.7358°W
Report Text: TJNR 230253Z AUTO 07007KT 10SM FEW029 BKN060 27/23 A3005 RMK AO2 RAB07E23 SLP175 P0000 60000 T02670228 51008 $
Loading
Personal Weather Stations






























Interactive Weather Map New forecast layout! Learn more

10-Day Weather Forecast

Advertisements
Track Severe Weather on mobile